Home > Products > Valid Products > MTR

000
SAUS46 KSTO 281753
MTRBLU
METAR KBLU 281752Z AUTO 17014G20KT 10SM CLR 13/M17 A3011 RMK AO2
SLP147 T01281172 10128 20100 58002





000
SAUS46 KSTO 281653
MTRBLU
METAR KBLU 281652Z AUTO 16011G19KT 10SM CLR 11/M16 A3011 RMK AO2
SLP152 T01111156





000
SAUS46 KSTO 281553
MTRBLU
METAR KBLU 281552Z AUTO 16009KT 10SM CLR 11/M18 A3011 RMK AO2 SLP155
T01061178





000
SAUS46 KSTO 281453
MTRBLU
METAR KBLU 281452Z AUTO 16009KT 10SM CLR 10/M19 A3012 RMK AO2 SLP156
T01001194 55005





000
SAUS46 KSTO 281353
MTRBLU
METAR KBLU 281352Z AUTO 15007G15KT 10SM CLR 11/M18 A3011 RMK AO2
SLP150 T01061183





000
SAUS46 KSTO 281253
MTRBLU
METAR KBLU 281252Z AUTO 15007KT 10SM CLR 11/M16 A3012 RMK AO2 SLP154
T01061161





000
SAUS46 KSTO 281154
MTRBLU
METAR KBLU 281152Z AUTO 15012G19KT 10SM CLR 11/M12 A3013 RMK AO2
SLP152 T01061117 10106 20094 58012





000
SAUS46 KSTO 281053
MTRBLU
METAR KBLU 281052Z AUTO 14009KT 10SM CLR 11/M07 A3015 RMK AO2 SLP156
T01061072





000
SAUS46 KSTO 280953
MTRBLU
METAR KBLU 280952Z AUTO 15010G16KT 10SM CLR 10/M06 A3016 RMK AO2
SLP160 T01001061





000
SAUS46 KSTO 280854
MTRBLU
METAR KBLU 280852Z AUTO 15009KT 10SM CLR 10/M06 A3017 RMK AO2 SLP164
T01001061 58009





000
SAUS46 KSTO 280754
MTRBLU
METAR KBLU 280752Z AUTO 13007KT 10SM CLR 10/M07 A3019 RMK AO2 SLP169
T01001067 401610094





000
SAUS46 KSTO 280653
MTRBLU
METAR KBLU 280652Z AUTO 14006KT 10SM CLR 10/M07 A3020 RMK AO2 SLP172
T01001067





000
SAUS46 KSTO 280554
MTRBLU
METAR KBLU 280552Z AUTO 16006KT 10SM CLR 11/M05 A3020 RMK AO2 SLP175
T01061050 10139 20100 57002





000
SAUS46 KSTO 280453
MTRBLU
METAR KBLU 280452Z AUTO 15005KT 10SM CLR 11/M08 A3021 RMK AO2 SLP179
T01111083





000
SAUS46 KSTO 280353
MTRBLU
METAR KBLU 280352Z AUTO 14006KT 10SM CLR 11/M06 A3021 RMK AO2 SLP182
T01061056





000
SAUS46 KSTO 280353
MTRBLU
METAR KBLU 280352Z AUTO 14006KT 10SM CLR 11/M06 A3021 RMK AO2 SLP182
T01061056





000
SAUS46 KSTO 280253
MTRBLU
METAR KBLU 280252Z AUTO 14006KT 10SM CLR 11/M05 A3021 RMK AO2 SLP183
T01111050 56006





000
SAUS46 KSTO 280153
MTRBLU
METAR KBLU 280152Z AUTO 15007KT 10SM CLR 11/M03 A3021 RMK AO2 SLP184
T01111028





000
SAUS46 KSTO 280153
MTRBLU
METAR KBLU 280152Z AUTO 15007KT 10SM CLR 11/M03 A3021 RMK AO2 SLP184
T01111028





000
SAUS46 KSTO 280053
MTRBLU
METAR KBLU 280052Z AUTO 17007KT 10SM CLR 11/M01 A3022 RMK AO2 SLP187
T01111006





000
SAUS46 KSTO 272353
MTRBLU
METAR KBLU 272352Z AUTO 17007KT 10SM CLR 14/M02 A3023 RMK AO2 SLP183
T01391017 10161 20139 56012





000
SAUS46 KSTO 272253
MTRBLU
METAR KBLU 272252Z AUTO 18006KT 10SM CLR 15/M03 A3024 RMK AO2 SLP182
T01501028





000
SAUS46 KSTO 272153
MTRBLU
METAR KBLU 272152Z AUTO 16010KT 10SM CLR 15/M03 A3025 RMK AO2 SLP184
T01501028





000
SAUS46 KSTO 272053
MTRBLU
METAR KBLU 272052Z AUTO 16009KT 10SM CLR 16/M03 A3028 RMK AO2 SLP194
T01561033 58015





000
SAUS46 KSTO 271953
MTRBLU
METAR KBLU 271952Z AUTO 17009KT 10SM CLR 16/M04 A3029 RMK AO2 SLP200
T01561039





000
SAUS46 KSTO 271853
MTRBLU
METAR KBLU 271852Z AUTO 17012KT 10SM CLR 16/M05 A3031 RMK AO2 SLP207
T01561050





000
SAUS46 KSTO 271754
MTRBLU
METAR KBLU 271752Z AUTO 16009G17KT 10SM CLR 15/M06 A3033 RMK AO2
SLP213 T01501056 10150 20117 53003





000
SAUS46 KSTO 271653
MTRBLU
METAR KBLU 271652Z AUTO 15007KT 10SM CLR 13/M05 A3033 RMK AO2 SLP215
T01331050





000
SAUS46 KSTO 271553
MTRBLU
METAR KBLU 271552Z AUTO 14006KT 10SM CLR 13/M07 A3032 RMK AO2 SLP210
T01281067





000
SAUS46 KSTO 271454
MTRBLU
METAR KBLU 271452Z AUTO 14007KT 10SM CLR 12/M07 A3032 RMK AO2 SLP209
T01221067 56003





000
SAUS46 KSTO 271353
MTRBLU
METAR KBLU 271352Z AUTO 14007G15KT 10SM CLR 12/M07 A3032 RMK AO2
SLP213 T01221067





000
SAUS46 KSTO 271253
MTRBLU
METAR KBLU 271252Z AUTO 13006KT 10SM CLR 12/M06 A3032 RMK AO2 SLP212
T01221061





000
SAUS46 KSTO 271153
MTRBLU
METAR KBLU 271152Z AUTO 14006KT 10SM CLR 12/M04 A3033 RMK AO2 SLP210
T01221044 10128 20111 58008





000
SAUS46 KSTO 271053
MTRBLU
METAR KBLU 271052Z AUTO 18007KT 10SM CLR 12/M06 A3034 RMK AO2 SLP212
T01221061





000
SAUS46 KSTO 270953
MTRBLU
METAR KBLU 270952Z AUTO 14006KT 10SM CLR 12/M07 A3035 RMK AO2 SLP210
T01221072





000
SAUS46 KSTO 270953
MTRBLU
METAR KBLU 270952Z AUTO 14006KT 10SM CLR 12/M07 A3035 RMK AO2 SLP210
T01221072





000
SAUS46 KSTO 270853
MTRBLU
METAR KBLU 270852Z AUTO 13006KT 10SM CLR 12/M05 A3036 RMK AO2 SLP216
T01171050 58007





000
SAUS46 KSTO 270753
MTRBLU
METAR KBLU 270752Z AUTO 15008KT 10SM CLR 12/M04 A3037 RMK AO2 SLP219
T01221039 401890117





000
SAUS46 KSTO 270653
MTRBLU
METAR KBLU 270652Z AUTO 16010KT 10SM CLR 12/M04 A3037 RMK AO2 SLP222
T01221039





000
SAUS46 KSTO 270553
MTRBLU
METAR KBLU 270552Z AUTO 16007KT 10SM CLR 13/M04 A3038 RMK AO2 SLP222
T01281044 10161 20128 53000





000
SAUS46 KSTO 270453
MTRBLU
METAR KBLU 270452Z AUTO 16008KT 10SM CLR 13/M06 A3038 RMK AO2 SLP223
T01331061





000
SAUS46 KSTO 270453
MTRBLU
METAR KBLU 270452Z AUTO 16008KT 10SM CLR 13/M06 A3038 RMK AO2 SLP223
T01331061





000
SAUS46 KSTO 270353
MTRBLU
METAR KBLU 270352Z AUTO 15006KT 10SM CLR 14/M08 A3037 RMK AO2 SLP222
T01441083





000
SAUS46 KSTO 270353
MTRBLU
METAR KBLU 270352Z AUTO 15006KT 10SM CLR 14/M08 A3037 RMK AO2 SLP222
T01441083





000
SAUS46 KSTO 270253
MTRBLU
METAR KBLU 270252Z AUTO 14006KT 10SM CLR 15/M08 A3038 RMK AO2 SLP224
T01501083 56004





000
SAUS46 KSTO 270153
MTRBLU
METAR KBLU 270152Z AUTO 14005KT 10SM CLR 14/M07 A3038 RMK AO2 SLP228
T01441067





000
SAUS46 KSTO 270053
MTRBLU
METAR KBLU 270052Z AUTO 14004KT 10SM CLR 14/M03 A3039 RMK AO2 SLP233
T01441028





000
SAUS46 KSTO 262353
MTRBLU
METAR KBLU 262352Z AUTO 16004KT 10SM CLR 16/M01 A3039 RMK AO2 SLP226
T01611006 10189 20161 56005





000
SAUS46 KSTO 262253
MTRBLU
METAR KBLU 262252Z AUTO 18007KT 10SM CLR 17/M02 A3039 RMK AO2 SLP226
T01721022





000
SAUS46 KSTO 262153
MTRBLU
METAR KBLU 262152Z AUTO 18007KT 10SM CLR 18/M04 A3040 RMK AO2 SLP224
T01831039





000
SAUS46 KSTO 262153
MTRBLU
METAR KBLU 262152Z AUTO 18007KT 10SM CLR 18/M04 A3040 RMK AO2 SLP224
T01831039





000
SAUS46 KSTO 262053
MTRBLU
METAR KBLU 262052Z AUTO 17008KT 10SM CLR 18/M06 A3041 RMK AO2 SLP229
T01831056 58016





000
SAUS46 KSTO 261953
MTRBLU
METAR KBLU 261952Z AUTO VRB06KT 10SM CLR 18/M04 A3043 RMK AO2 SLP238
T01831044





000
SAUS46 KSTO 261853
MTRBLU
METAR KBLU 261852Z AUTO 16007KT 10SM CLR 18/M06 A3045 RMK AO2 SLP247
T01781061





000
SAUS46 KSTO 261753
MTRBLU
METAR KBLU 261752Z AUTO 16005KT 10SM CLR 18/M06 A3046 RMK AO2 SLP251
T01781056 10178 20133 51007





000
SAUS46 KSTO 261653
MTRBLU
METAR KBLU 261652Z AUTO 00000KT 10SM CLR 17/M07 A3046 RMK AO2 SLP256
T01671067





000
SAUS46 KSTO 261553
MTRBLU
METAR KBLU 261552Z AUTO 11003KT 10SM CLR 16/M08 A3045 RMK AO2 SLP253
T01561083





000
SAUS46 KSTO 261453
MTRBLU
METAR KBLU 261452Z AUTO 10003KT 10SM CLR 14/M11 A3044 RMK AO2 SLP252
T01441106 56001





000
SAUS46 KSTO 261353
MTRBLU
METAR KBLU 261352Z AUTO 09003KT 10SM CLR 14/M09 A3044 RMK AO2 SLP258
T01391089





000
SAUS46 KSTO 261253
MTRBLU
METAR KBLU 261252Z AUTO 09003KT 10SM CLR 13/M08 A3044 RMK AO2 SLP260
T01331083





000
SAUS46 KSTO 261153
MTRBLU
METAR KBLU 261152Z AUTO 07004KT 10SM CLR 14/M08 A3044 RMK AO2 SLP253
T01441078 10144 20122 58006





000
SAUS46 KSTO 261053
MTRBLU
METAR KBLU 261052Z AUTO 07003KT 10SM CLR 14/M08 A3046 RMK AO2 SLP257
T01391083





000
SAUS46 KSTO 260953
MTRBLU
METAR KBLU 260952Z AUTO 06004KT 10SM CLR 14/M07 A3046 RMK AO2 SLP254
T01391072





000
SAUS46 KSTO 260953
MTRBLU
METAR KBLU 260952Z AUTO 06004KT 10SM CLR 14/M07 A3046 RMK AO2 SLP254
T01391072





000
SAUS46 KSTO 260853
MTRBLU
METAR KBLU 260852Z AUTO 06003KT 10SM CLR 13/M05 A3046 RMK AO2 SLP260
T01331050 58006





000
SAUS46 KSTO 260754
MTRBLU
METAR KBLU 260752Z AUTO 00000KT 10SM CLR 13/M03 A3048 RMK AO2 SLP264
T01281033 401500089





000
SAUS46 KSTO 260654
MTRBLU
METAR KBLU 260652Z AUTO 00000KT 10SM CLR 13/M01 A3049 RMK AO2 SLP267
T01331011





000
SAUS46 KSTO 260553
MTRBLU
METAR KBLU 260552Z AUTO 08003KT 10SM CLR 13/M01 A3049 RMK AO2 SLP271
T01281006 10133 20106 50001





000
SAUS46 KSTO 260453
MTRBLU
METAR KBLU 260452Z AUTO 09003KT 10SM CLR 12/01 A3049 RMK AO2 SLP278
T01170011





000
SAUS46 KSTO 260354
MTRBLU
METAR KBLU 260352Z AUTO 00000KT 10SM CLR 13/02 A3049 RMK AO2 SLP281
T01280022





000
SAUS46 KSTO 260354
MTRBLU
METAR KBLU 260352Z AUTO 00000KT 10SM CLR 13/02 A3049 RMK AO2 SLP281
T01280022





000
SAUS46 KSTO 260254
MTRBLU
METAR KBLU 260252Z AUTO 00000KT 10SM CLR 13/03 A3048 RMK AO2 SLP281
T01280028 55003





000
SAUS46 KSTO 260154
MTRBLU
METAR KBLU 260152Z AUTO 06003KT 10SM CLR 12/02 A3048 RMK AO2 SLP284
T01170022





000
SAUS46 KSTO 260054
MTRBLU
METAR KBLU 260052Z AUTO 00000KT 10SM CLR 11/02 A3049 RMK AO2 SLP285
T01110022





000
SAUS46 KSTO 252354
MTRBLU
METAR KBLU 252352Z AUTO 00000KT 10SM CLR 13/02 A3049 RMK AO2 SLP282
T01330017 10150 20128 56003





000
SAUS46 KSTO 252253
MTRBLU
METAR KBLU 252252Z AUTO 25003KT 10SM CLR 14/02 A3049 RMK AO2 SLP282
T01390017





000
SAUS46 KSTO 252153
MTRBLU
METAR KBLU 252152Z AUTO 27004KT 10SM CLR 14/02 A3050 RMK AO2 SLP279
T01440022





000
SAUS46 KSTO 252153
MTRBLU
METAR KBLU 252152Z AUTO 27004KT 10SM CLR 14/02 A3050 RMK AO2 SLP279
T01440022





000
SAUS46 KSTO 252053
MTRBLU
METAR KBLU 252052Z AUTO 27004KT 10SM CLR 14/02 A3050 RMK AO2 SLP283
T01390017 58015





000
SAUS46 KSTO 251954
MTRBLU
METAR KBLU 251952Z AUTO VRB03KT 10SM CLR 15/02 A3052 RMK AO2 SLP289
T01500017





000
SAUS46 KSTO 251854
MTRBLU
METAR KBLU 251852Z AUTO 31003KT 10SM CLR 14/01 A3055 RMK AO2 SLP298
T01440011





    US Dept of Commerce
    National Oceanic and Atmospheric Administration
    National Weather Service
    1325 East West Highway
    Silver Spring, MD 20910
    Page Author: NWS Internet Services Team
Disclaimer
Information Quality
Credits
Glossary
Privacy Policy
Freedom of Information Act (FOIA)
About Us
Career Opportunities